sensor_id;sensor_type;location;lat;lon;timestamp;P1;durP1;ratioP1;P2;durP2;ratioP2
85342;SDS011;75760;31.390;34.904;2024-03-08T00:00:40;5.75;;;2.83;;
85342;SDS011;75760;31.390;34.904;2024-03-08T00:03:08;8.20;;;2.87;;
85342;SDS011;75760;31.390;34.904;2024-03-08T00:05:35;7.43;;;2.60;;
85342;SDS011;75760;31.390;34.904;2024-03-08T00:08:01;5.93;;;2.72;;
85342;SDS011;75760;31.390;34.904;2024-03-08T00:10:27;6.75;;;2.67;;
85342;SDS011;75760;31.390;34.904;2024-03-08T00:12:54;8.25;;;2.55;;
85342;SDS011;75760;31.390;34.904;2024-03-08T00:15:19;7.93;;;2.33;;
85342;SDS011;75760;31.390;34.904;2024-03-08T00:17:48;7.88;;;2.72;;
85342;SDS011;75760;31.390;34.904;2024-03-08T00:20:14;5.18;;;2.10;;
85342;SDS011;75760;31.390;34.904;2024-03-08T00:22:40;5.88;;;2.30;;
85342;SDS011;75760;31.390;34.904;2024-03-08T00:25:06;4.97;;;2.27;;
85342;SDS011;75760;31.390;34.904;2024-03-08T00:27:35;8.82;;;2.80;;
85342;SDS011;75760;31.390;34.904;2024-03-08T00:30:01;6.35;;;2.40;;
85342;SDS011;75760;31.390;34.904;2024-03-08T00:32:27;11.35;;;2.47;;
85342;SDS011;75760;31.390;34.904;2024-03-08T00:34:53;3.87;;;2.63;;
85342;SDS011;75760;31.390;34.904;2024-03-08T00:37:19;6.95;;;2.08;;
85342;SDS011;75760;31.390;34.904;2024-03-08T00:39:47;8.73;;;2.60;;
85342;SDS011;75760;31.390;34.904;2024-03-08T00:42:17;4.97;;;2.22;;
85342;SDS011;75760;31.390;34.904;2024-03-08T00:44:43;5.17;;;2.40;;
85342;SDS011;75760;31.390;34.904;2024-03-08T00:47:09;7.00;;;2.67;;
85342;SDS011;75760;31.390;34.904;2024-03-08T00:49:34;6.17;;;2.10;;
85342;SDS011;75760;31.390;34.904;2024-03-08T00:52:02;7.80;;;2.13;;
85342;SDS011;75760;31.390;34.904;2024-03-08T00:54:28;4.95;;;2.05;;
85342;SDS011;75760;31.390;34.904;2024-03-08T00:56:53;5.88;;;2.22;;
85342;SDS011;75760;31.390;34.904;2024-03-08T00:59:20;4.77;;;2.20;;
85342;SDS011;75760;31.390;34.904;2024-03-08T01:01:46;3.88;;;1.83;;
85342;SDS011;75760;31.390;34.904;2024-03-08T01:04:11;7.87;;;2.33;;
85342;SDS011;75760;31.390;34.904;2024-03-08T01:06:37;5.72;;;2.20;;
85342;SDS011;75760;31.390;34.904;2024-03-08T01:09:02;4.37;;;1.70;;
85342;SDS011;75760;31.390;34.904;2024-03-08T01:11:28;5.83;;;2.10;;
85342;SDS011;75760;31.390;34.904;2024-03-08T01:13:54;5.80;;;2.30;;
85342;SDS011;75760;31.390;34.904;2024-03-08T01:16:19;4.00;;;1.88;;
85342;SDS011;75760;31.390;34.904;2024-03-08T01:18:46;6.23;;;2.30;;
85342;SDS011;75760;31.390;34.904;2024-03-08T01:21:12;4.30;;;1.60;;
85342;SDS011;75760;31.390;34.904;2024-03-08T01:23:38;6.40;;;2.00;;
85342;SDS011;75760;31.390;34.904;2024-03-08T01:26:04;7.57;;;1.77;;
85342;SDS011;75760;31.390;34.904;2024-03-08T01:28:30;5.47;;;1.90;;
85342;SDS011;75760;31.390;34.904;2024-03-08T01:30:56;4.50;;;1.88;;
85342;SDS011;75760;31.390;34.904;2024-03-08T01:33:23;8.35;;;1.83;;
85342;SDS011;75760;31.390;34.904;2024-03-08T01:35:51;7.30;;;1.53;;
85342;SDS011;75760;31.390;34.904;2024-03-08T01:38:17;5.88;;;2.60;;
85342;SDS011;75760;31.390;34.904;2024-03-08T01:40:44;3.88;;;1.92;;
85342;SDS011;75760;31.390;34.904;2024-03-08T01:43:17;5.00;;;1.88;;
85342;SDS011;75760;31.390;34.904;2024-03-08T01:45:43;4.57;;;1.70;;
85342;SDS011;75760;31.390;34.904;2024-03-08T01:48:09;7.20;;;2.00;;
85342;SDS011;75760;31.390;34.904;2024-03-08T01:50:35;6.97;;;2.47;;
85342;SDS011;75760;31.390;34.904;2024-03-08T01:53:01;14.17;;;5.30;;
85342;SDS011;75760;31.390;34.904;2024-03-08T01:55:28;34.40;;;11.63;;
85342;SDS011;75760;31.390;34.904;2024-03-08T01:57:54;24.20;;;7.88;;
85342;SDS011;75760;31.390;34.904;2024-03-08T02:00:20;23.17;;;8.20;;
85342;SDS011;75760;31.390;34.904;2024-03-08T02:02:46;15.63;;;4.75;;
85342;SDS011;75760;31.390;34.904;2024-03-08T02:05:14;11.55;;;3.75;;
85342;SDS011;75760;31.390;34.904;2024-03-08T02:07:41;10.00;;;3.40;;
85342;SDS011;75760;31.390;34.904;2024-03-08T02:10:10;7.13;;;2.72;;
85342;SDS011;75760;31.390;34.904;2024-03-08T02:12:37;7.10;;;2.60;;
85342;SDS011;75760;31.390;34.904;2024-03-08T02:15:04;8.57;;;2.45;;
85342;SDS011;75760;31.390;34.904;2024-03-08T02:17:31;7.85;;;2.53;;
85342;SDS011;75760;31.390;34.904;2024-03-08T02:20:01;4.30;;;2.20;;
85342;SDS011;75760;31.390;34.904;2024-03-08T02:22:28;8.32;;;2.90;;
85342;SDS011;75760;31.390;34.904;2024-03-08T02:24:55;7.57;;;2.70;;
85342;SDS011;75760;31.390;34.904;2024-03-08T02:27:24;8.50;;;2.42;;
85342;SDS011;75760;31.390;34.904;2024-03-08T02:29:50;8.57;;;2.67;;
85342;SDS011;75760;31.390;34.904;2024-03-08T02:32:24;17.67;;;5.65;;
85342;SDS011;75760;31.390;34.904;2024-03-08T02:34:50;9.57;;;3.78;;
85342;SDS011;75760;31.390;34.904;2024-03-08T02:37:16;11.87;;;4.63;;
85342;SDS011;75760;31.390;34.904;2024-03-08T02:39:43;13.18;;;4.55;;
85342;SDS011;75760;31.390;34.904;2024-03-08T02:42:08;22.42;;;6.85;;
85342;SDS011;75760;31.390;34.904;2024-03-08T02:44:34;26.37;;;10.30;;
85342;SDS011;75760;31.390;34.904;2024-03-08T02:47:00;41.33;;;11.70;;
85342;SDS011;75760;31.390;34.904;2024-03-08T02:49:26;44.50;;;15.13;;
85342;SDS011;75760;31.390;34.904;2024-03-08T02:51:55;51.13;;;14.68;;
85342;SDS011;75760;31.390;34.904;2024-03-08T02:54:22;44.78;;;14.80;;
85342;SDS011;75760;31.390;34.904;2024-03-08T02:56:49;41.53;;;13.75;;
85342;SDS011;75760;31.390;34.904;2024-03-08T02:59:17;26.27;;;8.98;;
85342;SDS011;75760;31.390;34.904;2024-03-08T03:01:44;33.20;;;10.27;;
85342;SDS011;75760;31.390;34.904;2024-03-08T03:04:09;28.20;;;9.65;;
85342;SDS011;75760;31.390;34.904;2024-03-08T03:06:35;23.80;;;8.13;;
85342;SDS011;75760;31.390;34.904;2024-03-08T03:09:01;20.13;;;7.40;;
85342;SDS011;75760;31.390;34.904;2024-03-08T03:11:27;17.17;;;6.43;;
85342;SDS011;75760;31.390;34.904;2024-03-08T03:13:53;13.47;;;5.23;;
85342;SDS011;75760;31.390;34.904;2024-03-08T03:16:19;8.23;;;3.80;;
85342;SDS011;75760;31.390;34.904;2024-03-08T03:18:45;7.47;;;3.00;;
85342;SDS011;75760;31.390;34.904;2024-03-08T03:21:11;10.32;;;3.60;;
85342;SDS011;75760;31.390;34.904;2024-03-08T03:23:38;10.17;;;3.57;;
85342;SDS011;75760;31.390;34.904;2024-03-08T03:26:09;7.60;;;2.75;;
85342;SDS011;75760;31.390;34.904;2024-03-08T03:28:38;10.75;;;3.67;;
85342;SDS011;75760;31.390;34.904;2024-03-08T03:31:07;7.90;;;3.58;;
85342;SDS011;75760;31.390;34.904;2024-03-08T03:33:35;13.98;;;6.10;;
85342;SDS011;75760;31.390;34.904;2024-03-08T03:36:02;23.80;;;7.97;;
85342;SDS011;75760;31.390;34.904;2024-03-08T03:38:30;53.92;;;18.70;;
85342;SDS011;75760;31.390;34.904;2024-03-08T03:40:56;32.55;;;10.50;;
85342;SDS011;75760;31.390;34.904;2024-03-08T03:43:25;33.03;;;10.02;;
85342;SDS011;75760;31.390;34.904;2024-03-08T03:45:51;25.23;;;8.07;;
85342;SDS011;75760;31.390;34.904;2024-03-08T03:48:16;19.70;;;7.85;;
85342;SDS011;75760;31.390;34.904;2024-03-08T03:50:42;20.40;;;7.60;;
85342;SDS011;75760;31.390;34.904;2024-03-08T03:53:09;14.88;;;6.60;;
85342;SDS011;75760;31.390;34.904;2024-03-08T03:55:35;28.00;;;8.83;;
85342;SDS011;75760;31.390;34.904;2024-03-08T03:58:02;26.00;;;9.40;;
85342;SDS011;75760;31.390;34.904;2024-03-08T04:00:28;20.27;;;8.48;;
85342;SDS011;75760;31.390;34.904;2024-03-08T04:02:53;22.27;;;8.38;;
85342;SDS011;75760;31.390;34.904;2024-03-08T04:05:20;29.37;;;10.33;;
85342;SDS011;75760;31.390;34.904;2024-03-08T04:07:46;28.65;;;9.43;;
85342;SDS011;75760;31.390;34.904;2024-03-08T04:10:11;50.17;;;17.45;;
85342;SDS011;75760;31.390;34.904;2024-03-08T04:12:37;58.50;;;20.03;;
85342;SDS011;75760;31.390;34.904;2024-03-08T04:15:03;58.90;;;19.92;;
85342;SDS011;75760;31.390;34.904;2024-03-08T04:17:32;54.90;;;18.57;;
85342;SDS011;75760;31.390;34.904;2024-03-08T04:20:02;97.07;;;30.33;;
85342;SDS011;75760;31.390;34.904;2024-03-08T04:22:34;129.63;;;42.35;;
85342;SDS011;75760;31.390;34.904;2024-03-08T04:25:04;95.47;;;32.05;;
85342;SDS011;75760;31.390;34.904;2024-03-08T04:27:31;67.03;;;24.83;;
85342;SDS011;75760;31.390;34.904;2024-03-08T04:29:58;68.70;;;23.83;;
85342;SDS011;75760;31.390;34.904;2024-03-08T04:32:24;62.58;;;24.58;;
85342;SDS011;75760;31.390;34.904;2024-03-08T04:34:50;45.70;;;16.80;;
85342;SDS011;75760;31.390;34.904;2024-03-08T04:37:16;42.43;;;15.73;;
85342;SDS011;75760;31.390;34.904;2024-03-08T04:39:46;33.47;;;12.20;;
85342;SDS011;75760;31.390;34.904;2024-03-08T04:42:12;22.00;;;8.02;;
85342;SDS011;75760;31.390;34.904;2024-03-08T04:44:38;14.05;;;6.13;;
85342;SDS011;75760;31.390;34.904;2024-03-08T04:47:04;15.20;;;5.47;;
85342;SDS011;75760;31.390;34.904;2024-03-08T04:49:33;15.38;;;5.10;;
85342;SDS011;75760;31.390;34.904;2024-03-08T04:52:02;12.45;;;5.15;;
85342;SDS011;75760;31.390;34.904;2024-03-08T04:54:28;20.17;;;7.18;;
85342;SDS011;75760;31.390;34.904;2024-03-08T04:56:54;19.02;;;6.47;;
85342;SDS011;75760;31.390;34.904;2024-03-08T04:59:21;17.27;;;6.80;;
85342;SDS011;75760;31.390;34.904;2024-03-08T05:01:46;14.40;;;6.13;;
85342;SDS011;75760;31.390;34.904;2024-03-08T05:04:12;9.75;;;4.50;;
85342;SDS011;75760;31.390;34.904;2024-03-08T05:06:38;9.50;;;5.00;;
85342;SDS011;75760;31.390;34.904;2024-03-08T05:09:04;13.80;;;6.32;;
85342;SDS011;75760;31.390;34.904;2024-03-08T05:11:47;11.00;;;6.40;;
85342;SDS011;75760;31.390;34.904;2024-03-08T05:14:13;10.33;;;5.10;;
85342;SDS011;75760;31.390;34.904;2024-03-08T05:16:45;11.77;;;6.07;;
85342;SDS011;75760;31.390;34.904;2024-03-08T05:19:14;10.23;;;5.93;;
85342;SDS011;75760;31.390;34.904;2024-03-08T05:21:44;17.30;;;6.90;;
85342;SDS011;75760;31.390;34.904;2024-03-08T05:24:10;14.18;;;8.90;;
85342;SDS011;75760;31.390;34.904;2024-03-08T05:26:36;11.00;;;7.40;;
85342;SDS011;75760;31.390;34.904;2024-03-08T05:29:05;14.27;;;7.47;;
85342;SDS011;75760;31.390;34.904;2024-03-08T05:31:46;15.93;;;7.93;;
85342;SDS011;75760;31.390;34.904;2024-03-08T05:34:14;12.48;;;7.43;;
85342;SDS011;75760;31.390;34.904;2024-03-08T05:36:40;15.32;;;6.57;;
85342;SDS011;75760;31.390;34.904;2024-03-08T05:39:09;10.93;;;5.70;;
85342;SDS011;75760;31.390;34.904;2024-03-08T05:41:37;12.30;;;5.45;;
85342;SDS011;75760;31.390;34.904;2024-03-08T05:44:04;10.77;;;5.30;;
85342;SDS011;75760;31.390;34.904;2024-03-08T05:46:30;9.30;;;5.47;;
85342;SDS011;75760;31.390;34.904;2024-03-08T05:48:56;10.90;;;5.63;;
85342;SDS011;75760;31.390;34.904;2024-03-08T05:51:24;11.25;;;5.70;;
85342;SDS011;75760;31.390;34.904;2024-03-08T05:53:52;9.45;;;5.72;;
85342;SDS011;75760;31.390;34.904;2024-03-08T05:56:18;11.18;;;5.43;;
85342;SDS011;75760;31.390;34.904;2024-03-08T05:58:44;8.20;;;4.90;;
85342;SDS011;75760;31.390;34.904;2024-03-08T06:01:10;10.88;;;4.82;;
85342;SDS011;75760;31.390;34.904;2024-03-08T06:03:38;13.93;;;5.30;;
85342;SDS011;75760;31.390;34.904;2024-03-08T06:06:12;8.77;;;4.28;;
85342;SDS011;75760;31.390;34.904;2024-03-08T06:08:38;7.78;;;4.05;;
85342;SDS011;75760;31.390;34.904;2024-03-08T06:11:03;6.60;;;3.23;;
85342;SDS011;75760;31.390;34.904;2024-03-08T06:13:34;7.53;;;3.10;;
85342;SDS011;75760;31.390;34.904;2024-03-08T06:16:00;7.13;;;3.63;;
85342;SDS011;75760;31.390;34.904;2024-03-08T06:18:30;6.20;;;3.00;;
85342;SDS011;75760;31.390;34.904;2024-03-08T06:20:56;7.20;;;2.83;;
85342;SDS011;75760;31.390;34.904;2024-03-08T06:23:22;10.00;;;2.83;;
85342;SDS011;75760;31.390;34.904;2024-03-08T06:25:48;5.03;;;2.60;;
85342;SDS011;75760;31.390;34.904;2024-03-08T06:28:14;10.18;;;2.78;;
85342;SDS011;75760;31.390;34.904;2024-03-08T06:30:40;4.10;;;1.60;;
85342;SDS011;75760;31.390;34.904;2024-03-08T06:33:05;4.90;;;1.75;;
85342;SDS011;75760;31.390;34.904;2024-03-08T06:35:32;4.78;;;1.98;;
85342;SDS011;75760;31.390;34.904;2024-03-08T06:38:00;4.43;;;1.90;;
85342;SDS011;75760;31.390;34.904;2024-03-08T06:40:26;6.07;;;1.70;;
85342;SDS011;75760;31.390;34.904;2024-03-08T06:42:52;4.50;;;1.55;;
85342;SDS011;75760;31.390;34.904;2024-03-08T06:45:18;7.07;;;1.30;;
85342;SDS011;75760;31.390;34.904;2024-03-08T06:47:45;3.72;;;1.30;;
85342;SDS011;75760;31.390;34.904;2024-03-08T06:50:11;8.10;;;1.92;;
85342;SDS011;75760;31.390;34.904;2024-03-08T06:52:37;4.33;;;1.57;;
85342;SDS011;75760;31.390;34.904;2024-03-08T06:55:03;4.88;;;1.30;;
85342;SDS011;75760;31.390;34.904;2024-03-08T06:57:30;3.88;;;1.23;;
85342;SDS011;75760;31.390;34.904;2024-03-08T06:59:57;3.85;;;1.55;;
85342;SDS011;75760;31.390;34.904;2024-03-08T07:02:23;6.67;;;1.10;;
85342;SDS011;75760;31.390;34.904;2024-03-08T07:04:51;4.13;;;0.70;;
85342;SDS011;75760;31.390;34.904;2024-03-08T07:07:18;3.75;;;1.00;;
85342;SDS011;75760;31.390;34.904;2024-03-08T07:09:45;5.25;;;0.82;;
85342;SDS011;75760;31.390;34.904;2024-03-08T07:12:11;4.10;;;1.30;;
85342;SDS011;75760;31.390;34.904;2024-03-08T07:14:38;4.15;;;0.95;;
85342;SDS011;75760;31.390;34.904;2024-03-08T07:17:06;4.75;;;0.98;;
85342;SDS011;75760;31.390;34.904;2024-03-08T07:19:34;5.93;;;1.08;;
85342;SDS011;75760;31.390;34.904;2024-03-08T07:22:00;2.53;;;0.93;;
85342;SDS011;75760;31.390;34.904;2024-03-08T07:24:28;4.10;;;1.07;;
85342;SDS011;75760;31.390;34.904;2024-03-08T07:27:12;4.57;;;1.08;;
85342;SDS011;75760;31.390;34.904;2024-03-08T07:29:38;9.00;;;1.48;;
85342;SDS011;75760;31.390;34.904;2024-03-08T07:32:03;5.57;;;1.13;;
85342;SDS011;75760;31.390;34.904;2024-03-08T07:34:49;6.03;;;1.13;;
85342;SDS011;75760;31.390;34.904;2024-03-08T07:37:16;6.15;;;1.30;;
85342;SDS011;75760;31.390;34.904;2024-03-08T07:39:42;4.30;;;1.10;;
85342;SDS011;75760;31.390;34.904;2024-03-08T07:42:08;3.90;;;1.00;;
85342;SDS011;75760;31.390;34.904;2024-03-08T07:44:35;6.10;;;1.10;;
85342;SDS011;75760;31.390;34.904;2024-03-08T07:47:01;5.07;;;1.10;;
85342;SDS011;75760;31.390;34.904;2024-03-08T07:49:28;6.38;;;1.20;;
85342;SDS011;75760;31.390;34.904;2024-03-08T07:51:55;3.50;;;1.40;;
85342;SDS011;75760;31.390;34.904;2024-03-08T07:54:21;5.63;;;1.27;;
85342;SDS011;75760;31.390;34.904;2024-03-08T07:56:47;5.43;;;1.30;;
85342;SDS011;75760;31.390;34.904;2024-03-08T07:59:13;3.75;;;1.13;;
85342;SDS011;75760;31.390;34.904;2024-03-08T08:01:38;3.97;;;1.10;;
85342;SDS011;75760;31.390;34.904;2024-03-08T08:04:04;5.22;;;0.90;;
85342;SDS011;75760;31.390;34.904;2024-03-08T08:06:30;5.13;;;0.93;;
85342;SDS011;75760;31.390;34.904;2024-03-08T08:09:00;5.82;;;1.20;;
85342;SDS011;75760;31.390;34.904;2024-03-08T08:11:28;4.70;;;1.30;;
85342;SDS011;75760;31.390;34.904;2024-03-08T08:13:54;4.55;;;1.10;;
85342;SDS011;75760;31.390;34.904;2024-03-08T08:16:20;5.87;;;1.03;;
85342;SDS011;75760;31.390;34.904;2024-03-08T08:18:48;4.53;;;1.20;;
85342;SDS011;75760;31.390;34.904;2024-03-08T08:21:14;5.47;;;0.87;;
85342;SDS011;75760;31.390;34.904;2024-03-08T08:23:39;4.53;;;1.07;;
85342;SDS011;75760;31.390;34.904;2024-03-08T08:26:05;4.53;;;1.87;;
85342;SDS011;75760;31.390;34.904;2024-03-08T08:28:32;4.07;;;1.25;;
85342;SDS011;75760;31.390;34.904;2024-03-08T08:30:58;6.45;;;1.13;;
85342;SDS011;75760;31.390;34.904;2024-03-08T08:33:24;4.38;;;1.10;;
85342;SDS011;75760;31.390;34.904;2024-03-08T08:35:51;5.10;;;1.00;;
85342;SDS011;75760;31.390;34.904;2024-03-08T08:38:19;4.53;;;0.93;;
85342;SDS011;75760;31.390;34.904;2024-03-08T08:40:45;4.03;;;1.13;;
85342;SDS011;75760;31.390;34.904;2024-03-08T08:43:12;3.22;;;1.05;;
85342;SDS011;75760;31.390;34.904;2024-03-08T08:45:39;2.95;;;0.88;;
85342;SDS011;75760;31.390;34.904;2024-03-08T08:48:05;3.63;;;0.93;;
85342;SDS011;75760;31.390;34.904;2024-03-08T08:50:31;5.00;;;0.97;;
85342;SDS011;75760;31.390;34.904;2024-03-08T08:52:57;9.77;;;1.27;;
85342;SDS011;75760;31.390;34.904;2024-03-08T08:55:23;2.78;;;0.90;;
85342;SDS011;75760;31.390;34.904;2024-03-08T08:57:52;4.97;;;1.10;;
85342;SDS011;75760;31.390;34.904;2024-03-08T09:00:20;2.47;;;1.00;;
85342;SDS011;75760;31.390;34.904;2024-03-08T09:02:49;4.10;;;1.15;;
85342;SDS011;75760;31.390;34.904;2024-03-08T09:05:16;7.80;;;1.15;;
85342;SDS011;75760;31.390;34.904;2024-03-08T09:07:44;4.90;;;1.25;;
85342;SDS011;75760;31.390;34.904;2024-03-08T09:10:10;4.10;;;1.38;;
85342;SDS011;75760;31.390;34.904;2024-03-08T09:12:38;6.13;;;1.33;;
85342;SDS011;75760;31.390;34.904;2024-03-08T09:15:04;6.13;;;1.40;;
85342;SDS011;75760;31.390;34.904;2024-03-08T09:17:33;5.72;;;1.25;;
85342;SDS011;75760;31.390;34.904;2024-03-08T09:19:59;6.50;;;1.08;;
85342;SDS011;75760;31.390;34.904;2024-03-08T09:22:25;4.88;;;1.23;;
85342;SDS011;75760;31.390;34.904;2024-03-08T09:24:51;4.67;;;1.23;;
85342;SDS011;75760;31.390;34.904;2024-03-08T09:27:17;4.10;;;1.23;;
85342;SDS011;75760;31.390;34.904;2024-03-08T09:29:43;6.70;;;1.70;;
85342;SDS011;75760;31.390;34.904;2024-03-08T09:32:09;3.65;;;1.05;;
85342;SDS011;75760;31.390;34.904;2024-03-08T09:34:37;6.97;;;1.48;;
85342;SDS011;75760;31.390;34.904;2024-03-08T09:37:03;4.43;;;1.05;;
85342;SDS011;75760;31.390;34.904;2024-03-08T09:39:29;4.57;;;1.20;;
85342;SDS011;75760;31.390;34.904;2024-03-08T09:41:55;4.07;;;1.00;;
85342;SDS011;75760;31.390;34.904;2024-03-08T09:44:21;4.68;;;1.13;;
85342;SDS011;75760;31.390;34.904;2024-03-08T09:46:49;3.83;;;1.27;;
85342;SDS011;75760;31.390;34.904;2024-03-08T09:49:18;6.83;;;1.30;;
85342;SDS011;75760;31.390;34.904;2024-03-08T09:51:44;3.38;;;1.10;;
85342;SDS011;75760;31.390;34.904;2024-03-08T09:54:11;5.00;;;1.30;;
85342;SDS011;75760;31.390;34.904;2024-03-08T09:56:38;4.38;;;1.30;;
85342;SDS011;75760;31.390;34.904;2024-03-08T09:59:09;6.88;;;1.55;;
85342;SDS011;75760;31.390;34.904;2024-03-08T10:01:54;6.13;;;1.40;;
85342;SDS011;75760;31.390;34.904;2024-03-08T10:04:24;6.97;;;1.50;;
85342;SDS011;75760;31.390;34.904;2024-03-08T10:06:53;8.40;;;1.60;;
85342;SDS011;75760;31.390;34.904;2024-03-08T10:09:20;7.20;;;1.42;;
85342;SDS011;75760;31.390;34.904;2024-03-08T10:11:50;4.55;;;1.23;;
85342;SDS011;75760;31.390;34.904;2024-03-08T10:14:15;5.13;;;1.30;;
85342;SDS011;75760;31.390;34.904;2024-03-08T10:16:41;4.22;;;1.20;;
85342;SDS011;75760;31.390;34.904;2024-03-08T10:19:07;3.10;;;0.93;;
85342;SDS011;75760;31.390;34.904;2024-03-08T10:21:33;4.35;;;0.90;;
85342;SDS011;75760;31.390;34.904;2024-03-08T10:23:59;6.95;;;1.35;;
85342;SDS011;75760;31.390;34.904;2024-03-08T10:26:24;3.30;;;1.40;;
85342;SDS011;75760;31.390;34.904;2024-03-08T10:28:53;4.75;;;1.35;;
85342;SDS011;75760;31.390;34.904;2024-03-08T10:31:21;8.95;;;1.27;;
85342;SDS011;75760;31.390;34.904;2024-03-08T10:33:46;5.32;;;1.20;;
85342;SDS011;75760;31.390;34.904;2024-03-08T10:36:13;7.13;;;1.27;;
85342;SDS011;75760;31.390;34.904;2024-03-08T10:38:42;5.50;;;1.17;;
85342;SDS011;75760;31.390;34.904;2024-03-08T10:41:12;8.85;;;1.60;;
85342;SDS011;75760;31.390;34.904;2024-03-08T10:43:47;6.10;;;1.45;;
85342;SDS011;75760;31.390;34.904;2024-03-08T10:47:18;5.10;;;1.10;;
85342;SDS011;75760;31.390;34.904;2024-03-08T10:49:31;4.88;;;1.45;;
85342;SDS011;75760;31.390;34.904;2024-03-08T10:52:04;4.30;;;1.43;;
85342;SDS011;75760;31.390;34.904;2024-03-08T10:54:33;7.00;;;1.30;;
85342;SDS011;75760;31.390;34.904;2024-03-08T10:57:05;5.90;;;1.40;;
85342;SDS011;75760;31.390;34.904;2024-03-08T10:59:31;5.03;;;1.10;;
85342;SDS011;75760;31.390;34.904;2024-03-08T11:02:02;5.25;;;1.52;;
85342;SDS011;75760;31.390;34.904;2024-03-08T11:04:30;12.37;;;1.33;;
85342;SDS011;75760;31.390;34.904;2024-03-08T11:07:00;4.35;;;1.20;;
85342;SDS011;75760;31.390;34.904;2024-03-08T11:15:00;5.95;;;1.20;;
85342;SDS011;75760;31.390;34.904;2024-03-08T11:19:57;4.72;;;1.33;;
85342;SDS011;75760;31.390;34.904;2024-03-08T11:22:32;7.20;;;1.13;;
85342;SDS011;75760;31.390;34.904;2024-03-08T11:25:01;5.00;;;1.40;;
85342;SDS011;75760;31.390;34.904;2024-03-08T11:27:33;5.65;;;1.33;;
85342;SDS011;75760;31.390;34.904;2024-03-08T11:30:07;4.37;;;1.30;;
85342;SDS011;75760;31.390;34.904;2024-03-08T11:32:37;6.88;;;1.80;;
85342;SDS011;75760;31.390;34.904;2024-03-08T11:35:17;7.05;;;1.35;;
85342;SDS011;75760;31.390;34.904;2024-03-08T11:37:44;4.90;;;1.30;;
85342;SDS011;75760;31.390;34.904;2024-03-08T11:40:13;6.23;;;1.20;;
85342;SDS011;75760;31.390;34.904;2024-03-08T11:42:44;4.82;;;1.58;;
85342;SDS011;75760;31.390;34.904;2024-03-08T11:45:14;5.35;;;1.13;;
85342;SDS011;75760;31.390;34.904;2024-03-08T11:47:42;3.60;;;0.93;;
85342;SDS011;75760;31.390;34.904;2024-03-08T11:50:13;5.18;;;1.30;;
85342;SDS011;75760;31.390;34.904;2024-03-08T11:52:40;5.27;;;1.47;;
85342;SDS011;75760;31.390;34.904;2024-03-08T11:55:07;4.07;;;0.90;;
85342;SDS011;75760;31.390;34.904;2024-03-08T11:57:33;5.82;;;1.23;;
85342;SDS011;75760;31.390;34.904;2024-03-08T11:59:59;3.97;;;0.80;;
85342;SDS011;75760;31.390;34.904;2024-03-08T12:02:35;4.27;;;1.30;;
85342;SDS011;75760;31.390;34.904;2024-03-08T12:05:03;5.00;;;1.27;;
85342;SDS011;75760;31.390;34.904;2024-03-08T12:07:31;5.50;;;1.23;;
85342;SDS011;75760;31.390;34.904;2024-03-08T12:10:19;6.65;;;1.50;;
85342;SDS011;75760;31.390;34.904;2024-03-08T12:12:52;6.07;;;1.30;;
85342;SDS011;75760;31.390;34.904;2024-03-08T12:15:19;4.87;;;1.50;;
85342;SDS011;75760;31.390;34.904;2024-03-08T12:17:47;4.25;;;1.40;;
85342;SDS011;75760;31.390;34.904;2024-03-08T12:20:19;3.90;;;1.17;;
85342;SDS011;75760;31.390;34.904;2024-03-08T12:22:54;5.65;;;1.77;;
85342;SDS011;75760;31.390;34.904;2024-03-08T12:25:30;6.95;;;1.60;;
85342;SDS011;75760;31.390;34.904;2024-03-08T12:28:06;8.67;;;1.70;;
85342;SDS011;75760;31.390;34.904;2024-03-08T12:30:48;9.38;;;1.40;;
85342;SDS011;75760;31.390;34.904;2024-03-08T12:33:17;4.82;;;1.10;;
85342;SDS011;75760;31.390;34.904;2024-03-08T12:35:50;8.70;;;1.52;;
85342;SDS011;75760;31.390;34.904;2024-03-08T12:38:20;5.53;;;1.40;;
85342;SDS011;75760;31.390;34.904;2024-03-08T12:40:57;6.70;;;1.33;;
85342;SDS011;75760;31.390;34.904;2024-03-08T12:43:24;5.85;;;1.60;;
85342;SDS011;75760;31.390;34.904;2024-03-08T12:45:49;6.07;;;1.52;;
85342;SDS011;75760;31.390;34.904;2024-03-08T12:48:17;6.45;;;1.67;;
85342;SDS011;75760;31.390;34.904;2024-03-08T12:50:46;5.53;;;1.80;;
85342;SDS011;75760;31.390;34.904;2024-03-08T12:53:13;7.85;;;1.60;;
85342;SDS011;75760;31.390;34.904;2024-03-08T12:55:39;5.55;;;1.92;;
85342;SDS011;75760;31.390;34.904;2024-03-08T12:58:07;13.38;;;3.03;;
85342;SDS011;75760;31.390;34.904;2024-03-08T13:00:35;9.43;;;3.67;;
85342;SDS011;75760;31.390;34.904;2024-03-08T13:03:02;7.50;;;3.27;;
85342;SDS011;75760;31.390;34.904;2024-03-08T13:05:28;9.25;;;3.22;;
85342;SDS011;75760;31.390;34.904;2024-03-08T13:07:56;14.00;;;5.68;;
85342;SDS011;75760;31.390;34.904;2024-03-08T13:10:22;5.55;;;3.22;;
85342;SDS011;75760;31.390;34.904;2024-03-08T13:12:48;11.10;;;4.97;;
85342;SDS011;75760;31.390;34.904;2024-03-08T13:15:13;9.52;;;3.50;;
85342;SDS011;75760;31.390;34.904;2024-03-08T13:17:45;8.73;;;3.65;;
85342;SDS011;75760;31.390;34.904;2024-03-08T13:20:14;9.20;;;4.05;;
85342;SDS011;75760;31.390;34.904;2024-03-08T13:22:45;7.60;;;3.40;;
85342;SDS011;75760;31.390;34.904;2024-03-08T13:25:12;9.38;;;3.38;;
85342;SDS011;75760;31.390;34.904;2024-03-08T13:27:39;10.35;;;4.35;;
85342;SDS011;75760;31.390;34.904;2024-03-08T13:30:07;5.95;;;3.08;;
85342;SDS011;75760;31.390;34.904;2024-03-08T13:32:37;7.35;;;2.90;;
85342;SDS011;75760;31.390;34.904;2024-03-08T13:35:06;6.40;;;2.90;;
85342;SDS011;75760;31.390;34.904;2024-03-08T13:37:41;6.20;;;2.70;;
85342;SDS011;75760;31.390;34.904;2024-03-08T13:40:08;10.45;;;3.00;;
85342;SDS011;75760;31.390;34.904;2024-03-08T13:42:48;5.72;;;2.80;;
85342;SDS011;75760;31.390;34.904;2024-03-08T13:45:14;7.57;;;2.47;;
85342;SDS011;75760;31.390;34.904;2024-03-08T13:47:47;8.33;;;2.47;;
85342;SDS011;75760;31.390;34.904;2024-03-08T13:50:14;13.07;;;2.42;;
85342;SDS011;75760;31.390;34.904;2024-03-08T13:52:46;5.78;;;2.58;;
85342;SDS011;75760;31.390;34.904;2024-03-08T13:55:17;6.80;;;2.67;;
85342;SDS011;75760;31.390;34.904;2024-03-08T13:57:43;7.80;;;2.72;;
85342;SDS011;75760;31.390;34.904;2024-03-08T14:00:10;6.30;;;2.90;;
85342;SDS011;75760;31.390;34.904;2024-03-08T14:02:40;5.20;;;2.60;;
85342;SDS011;75760;31.390;34.904;2024-03-08T14:05:06;7.18;;;2.22;;
85342;SDS011;75760;31.390;34.904;2024-03-08T14:07:36;7.10;;;3.15;;
85342;SDS011;75760;31.390;34.904;2024-03-08T14:10:03;6.97;;;2.60;;
85342;SDS011;75760;31.390;34.904;2024-03-08T14:12:32;6.00;;;2.27;;
85342;SDS011;75760;31.390;34.904;2024-03-08T14:14:57;4.38;;;2.15;;
85342;SDS011;75760;31.390;34.904;2024-03-08T14:17:25;5.85;;;2.50;;
85342;SDS011;75760;31.390;34.904;2024-03-08T14:19:52;6.82;;;1.60;;
85342;SDS011;75760;31.390;34.904;2024-03-08T14:22:18;5.32;;;1.73;;
85342;SDS011;75760;31.390;34.904;2024-03-08T14:24:45;6.80;;;1.87;;
85342;SDS011;75760;31.390;34.904;2024-03-08T14:27:11;6.70;;;2.40;;
85342;SDS011;75760;31.390;34.904;2024-03-08T14:29:39;6.88;;;1.98;;
85342;SDS011;75760;31.390;34.904;2024-03-08T14:32:05;4.80;;;1.75;;
85342;SDS011;75760;31.390;34.904;2024-03-08T14:34:35;6.28;;;2.08;;
85342;SDS011;75760;31.390;34.904;2024-03-08T14:37:01;6.80;;;1.70;;
85342;SDS011;75760;31.390;34.904;2024-03-08T14:39:30;5.90;;;1.60;;
85342;SDS011;75760;31.390;34.904;2024-03-08T14:41:58;10.07;;;1.65;;